METAR Data
IDs: Format: Raw Decoded Include TAF

Data at: 1416 UTC 27 Nov 2021

EDVE 271350Z 25007KT 9999 SCT015 BKN027 OVC034 04/02 Q0990